KJAX

Jacksonville International Airport

Jacksonville, Florida, USA
METAR KJAX 160956Z 35005KT 10SM BKN065 OVC110 11/03 A3020 RMK AO2 SLP228 T01060033 $
Observed Flight Rules
Dec-16 @ 09:56 UTC (57 minutes ago) Visual Flight Rules
Wind Visibility Clouds
350° at 5 knots 10 miles
  • Broken at 6,500' AGL
  • Overcast at 11,000' AGL
Temperatures Readings
Current 11°C / 52°F
Dewpoint 3°C / 37°F
Humidity 58%
Altimeter 30.2" Hg
Pressure 1022.8 hPa
Elevation 10
METAR KJAX 160956Z 35005KT 10SM BKN065 OVC110 11/03 A3020 RMK AO2 SLP228 T01060033 $
Observed Flight Rules
Dec-16 @ 09:56 UTC
(57 minutes ago)
VFR
Wind Visibility
350° at 5 knots 10 miles
Clouds
  • Broken at 6,500' AGL
  • Overcast at 11,000' AGL
Temperature Dewpoint
11°C / 52°F 3°C / 37°F
Humidity Altimeter Pressure
58% 30.2" Hg 1022.8 hPa